Latest Weather Observations for Casey*

IDT60801

Issued at 3:02 pm EST Saturday 29 April 2017 (issued every 30 minutes, with the page automatically refreshed every 10 minutes)

About weather observations | Map of weather stations | Latest weather observations for ANT | Other Formats
Station Details ID: 300017 Name: CASEY Lat: -66.28 Lon: 110.52 Height: 40.0 m
Data from the previous 72 hours. | See also: Recent months at Casey*
Date/Time
EST
Temp
°C
App
Temp
°C
Dew
Point
°C
Rel
Hum
%
Delta-T
°C
Wind Press
QNH
hPa
Press
MSL
hPa
Rain since
9am
mm
Dir  Spd
km/h
Gust
km/h
Spd
kts
Gust
kts
29/03:00pm -14.0 -23.7 -17.0 78 - S 33 39 18 21 985.4 - -
29/02:30pm -13.6 -22.0 -17.2 74 - S 26 43 14 23 985.3 - -
29/02:00pm -11.6 -21.1 -15.4 73 - S 32 41 17 22 985.0 - -
29/01:46pm -9.5 -16.9 -13.2 74 - ESE 22 69 12 37 985.0 - -
29/01:39pm -9.3 -19.4 -16.2 57 - SW 35 56 19 30 984.5 - -
29/01:38pm -9.3 -19.8 -16.2 57 - SW 37 56 20 30 984.5 - -
29/01:37pm -3.3 -11.7 -10.6 57 - SSW 28 52 15 28 984.8 - -
29/01:36pm -3.3 -11.7 -10.6 57 - SW 28 52 15 28 984.8 - -
29/01:35pm -4.1 -11.7 -10.3 62 - S 24 50 13 27 984.9 - -
29/01:32pm -8.4 -17.8 -13.8 65 - SSW 32 50 17 27 984.8 - -
29/01:30pm -4.8 -14.2 -11.6 59 - SW 33 50 18 27 984.9 - -
29/01:27pm -8.5 -17.5 -14.1 64 - SSW 30 50 16 27 984.7 - -
29/01:22pm -5.6 -13.2 -9.5 74 - S 24 41 13 22 984.8 - -
29/01:21pm -5.6 -13.6 -9.5 74 - S 26 41 14 22 984.8 - -
29/01:13pm -10.8 -18.3 -14.0 77 - S 22 32 12 17 984.8 - -
29/01:12pm -10.8 -18.3 -14.0 77 - S 22 43 12 23 984.8 - -
29/01:09pm -12.4 -23.3 -17.2 67 - SSW 39 43 21 23 984.8 - -
29/01:08pm -12.4 -23.3 -17.2 67 - SSW 39 43 21 23 984.8 - -
29/01:00pm -10.2 -20.2 -14.4 71 - SSE 35 43 19 23 984.7 985.1 -
29/12:30pm -8.4 -17.0 -13.2 68 - SSE 28 37 15 20 984.5 - -
29/12:18pm -6.9 -16.6 -10.4 76 - SE 35 46 19 25 984.3 - -
29/12:17pm -6.9 -16.6 -10.4 76 - SE 35 57 19 31 984.3 - -
29/12:05pm -6.9 -20.6 -10.4 76 - E 56 74 30 40 984.0 - -
29/12:04pm -6.9 -20.6 -10.4 76 - E 56 74 30 40 984.0 - -
29/12:00pm -6.9 -20.8 -10.4 76 - E 57 74 31 40 983.2 - -
29/11:30am -6.9 -20.2 -10.2 77 - E 54 70 29 38 983.6 - -
29/11:22am -7.1 -20.8 -10.3 78 - E 56 67 30 36 983.5 - -
29/11:06am -7.4 -17.1 -10.2 80 - E 35 80 19 43 984.2 - -
29/11:02am -7.3 -21.6 -10.1 80 - E 59 80 32 43 983.4 - -
29/11:00am -7.2 -19.4 -10.0 80 - E 48 80 26 43 983.1 - -
29/10:58am -7.2 -21.9 -10.2 79 - E 61 72 33 39 983.4 - -
29/10:53am -7.1 -19.7 -10.1 79 - E 50 69 27 37 983.8 - -
29/10:48am -7.1 -21.3 -9.8 81 - E 59 69 32 37 983.2 - -
29/10:45am -7.0 -17.8 -9.9 80 - E 41 59 22 32 983.6 - -
29/10:44am -7.1 -17.6 -9.9 80 - E 39 50 21 27 983.8 - -
29/10:39am -7.3 -21.5 -9.8 82 - E 59 78 32 42 983.5 - -
29/10:38am -7.3 -21.5 -9.8 82 - E 59 78 32 42 983.5 - -
29/10:30am -6.7 -21.7 -10.0 77 - E 63 78 34 42 982.8 - -
29/10:25am -6.9 -22.3 -10.1 78 - E 65 72 35 39 982.8 - -
29/10:21am -6.8 -18.0 -10.1 77 - E 43 61 23 33 983.1 - -
29/10:13am -7.0 -16.7 -10.0 79 - E 35 46 19 25 983.9 - -
29/10:07am -6.8 -20.5 -10.3 76 - E 56 74 30 40 983.3 - -
29/10:06am -6.8 -20.5 -10.3 76 - E 56 74 30 40 983.3 - -
29/10:00am -6.8 -21.1 -10.3 76 - E 59 74 32 40 983.0 983.5 -
29/09:52am -7.1 -20.4 -9.5 83 - E 54 69 29 37 983.5 - -
29/09:51am -7.1 -20.4 -9.5 83 - E 54 69 29 37 983.5 - -
29/09:32am -10.8 -19.5 -14.7 73 - SSE 28 46 15 25 984.2 - -
29/09:30am -10.9 -20.0 -14.8 73 - SSE 30 46 16 25 984.2 - -
29/09:00am -12.1 -21.2 -15.4 76 - SSE 30 39 16 21 984.2 - -
29/08:30am -11.3 -20.0 -14.8 75 - S 28 35 15 19 984.2 - -
29/08:00am -11.6 -21.1 -15.4 73 - S 32 37 17 20 984.2 - -
29/07:30am -12.8 -22.3 -16.3 75 - S 32 39 17 21 984.4 - -
29/07:00am -12.0 -20.0 -15.7 74 - SSE 24 37 13 20 984.2 984.6 -
29/06:30am -13.6 -20.8 -16.3 80 - S 20 28 11 15 984.7 - -
29/06:18am -13.8 -21.0 -20.7 56 - W 19 32 10 17 984.5 - -
29/06:17am -13.8 -21.0 -20.7 56 - W 19 43 10 23 984.5 - -
29/06:12am -8.3 -16.3 -10.1 87 - SE 26 41 14 22 984.2 - -
29/06:11am -8.3 -16.3 -10.1 87 - ESE 26 41 14 22 984.2 - -
29/06:00am -13.8 -21.9 -18.2 69 - SSW 24 39 13 21 984.5 - -
29/05:52am -9.2 -16.9 -10.7 89 - SW 24 32 13 17 984.4 - -
29/05:51am -9.2 -16.5 -10.7 89 - SW 22 44 12 24 984.4 - -
29/05:30am -15.6 -25.2 -18.7 77 - S 32 48 17 26 984.6 - -
29/05:29am -15.7 -25.0 -19.3 74 - S 30 48 16 26 984.6 - -
29/05:28am -15.7 -25.0 -19.3 74 - S 30 48 16 26 984.6 - -
29/05:00am -13.4 -21.0 -16.2 79 - S 22 35 12 19 984.8 - -
29/04:30am -13.0 -20.2 -16.2 77 - SW 20 26 11 14 984.9 - -
29/04:12am -12.5 -21.3 -17.2 68 - S 28 41 15 22 984.9 - -
29/04:05am -9.5 -18.2 -14.6 66 - S 28 52 15 28 985.0 - -
29/04:00am -7.3 -15.4 -10.8 76 - S 26 52 14 28 984.8 985.2 -
29/03:59am -8.5 -16.6 -11.0 82 - S 26 52 14 28 984.7 - -
29/03:58am -8.5 -16.6 -11.0 82 - S 26 52 14 28 984.7 - -
29/03:55am -13.6 -22.1 -18.9 64 - S 26 37 14 20 985.2 - -
29/03:54am -13.6 -22.1 -18.9 64 - S 26 37 14 20 985.2 - -
29/03:43am -8.2 -16.7 -11.5 77 - S 28 50 15 27 985.0 - -
29/03:30am -12.1 -20.2 -18.4 59 - S 24 30 13 16 985.4 - -
29/03:08am -11.0 -20.0 -13.2 84 - SSW 30 50 16 27 985.4 - -
29/03:07am -11.0 -20.0 -13.2 84 - SSW 30 50 16 27 985.4 - -
29/03:00am -11.9 -20.6 -15.6 74 - SSW 28 41 15 22 985.4 - -
29/02:46am -9.4 -16.8 -11.7 83 - S 22 41 12 22 985.8 - -
29/02:30am -14.6 -23.0 -17.4 79 - S 26 33 14 18 985.8 - -
29/02:00am -13.3 -21.7 -17.1 73 - SSW 26 41 14 22 986.0 - -
29/01:56am -13.6 -22.4 -16.7 77 - SSW 28 46 15 25 986.1 - -
29/01:34am -14.9 -23.4 -19.5 68 - SSW 26 37 14 20 986.3 - -
29/01:30am -9.4 -15.9 -13.0 75 - WSW 17 33 9 18 986.3 - -
29/01:13am -8.5 -17.6 -9.8 90 - ENE 32 48 17 26 986.4 - -
29/01:12am -11.2 -20.5 -12.1 93 - E 32 48 17 26 986.4 - -
29/01:00am -13.1 -21.4 -14.9 86 - ESE 26 30 14 16 986.5 986.9 -
29/12:30am -17.2 -25.3 -20.1 78 - S 24 33 13 18 986.9 - -
29/12:00am -16.4 -26.2 -19.2 79 - S 33 39 18 21 986.9 - -
 
Date/Time
EST
Temp
°C
App
Temp
°C
Dew
Point
°C
Rel
Hum
%
Delta-T
°C
Wind Press
QNH
hPa
Press
MSL
hPa
Rain since
9am
mm
Dir  Spd
km/h
Gust
km/h
Spd
kts
Gust
kts
28/11:30pm -17.1 -25.6 -19.6 81 - S 26 33 14 18 987.3 - -
28/11:00pm -15.7 -25.3 -18.6 78 - SSE 32 37 17 20 987.2 - -
28/10:30pm -15.9 -24.0 -19.4 74 - SSE 24 33 13 18 987.3 - -
28/10:00pm -15.6 -22.9 -18.5 78 - S 20 32 11 17 987.5 987.9 -
28/09:30pm -14.7 -22.4 -17.5 79 - S 22 30 12 16 987.7 - -
28/09:00pm -14.9 -22.6 -17.7 79 - S 22 30 12 16 988.0 - -
28/08:30pm -15.5 -23.2 -18.1 80 - S 22 26 12 14 988.0 - -
28/08:00pm -15.5 -23.6 -18.4 78 - S 24 30 13 16 987.9 - -
28/07:30pm -16.5 -25.4 -19.6 77 - S 28 35 15 19 988.0 - -
28/07:00pm -17.5 -27.4 -21.1 73 - S 33 41 18 22 988.3 988.7 -
28/06:30pm -15.8 -23.5 -19.3 74 - S 22 35 12 19 988.5 - -
28/06:00pm -15.6 -25.5 -20.5 66 - S 33 52 18 28 988.7 - -
28/05:52pm -16.9 -26.8 -20.9 71 - S 33 52 18 28 988.6 - -
28/05:51pm -16.9 -26.8 -20.9 71 - S 33 52 18 28 988.6 - -
28/05:30pm -17.2 -26.1 -21.2 71 - SSE 28 35 15 19 989.3 - -
28/05:00pm -18.4 -27.0 -21.4 77 - SSE 26 32 14 17 989.9 - -
28/04:30pm -18.1 -26.7 -21.0 78 - SSE 26 32 14 17 990.0 - -
28/04:00pm -15.6 -23.8 -21.2 62 - ESE 24 30 13 16 990.0 990.4 -
28/03:30pm -15.9 -24.8 -20.9 65 - ESE 28 32 15 17 990.1 - -
28/03:00pm -16.1 -24.3 -20.3 70 - ESE 24 30 13 16 990.5 - -
28/02:30pm -15.8 -25.1 -20.5 67 - ESE 30 35 16 19 990.6 - -
28/02:00pm -15.6 -24.9 -20.5 66 - E 30 33 16 18 990.8 - -
28/01:30pm -13.9 -23.5 -18.5 68 - ENE 32 35 17 19 990.8 - -
28/01:00pm -13.5 -23.0 -17.0 75 - ENE 32 39 17 21 991.0 991.4 -
28/12:30pm -13.8 -24.3 -17.1 76 - NE 37 44 20 24 990.8 - -
28/12:00pm -14.6 -25.1 -18.2 74 - NE 37 43 20 23 991.0 - -
28/11:30am -14.9 -25.8 -17.9 78 - NE 39 44 21 24 991.1 - -
28/11:00am -15.8 -25.6 -19.2 75 - NE 33 41 18 22 991.2 - -
28/10:30am -15.6 -23.3 -17.8 83 - NNE 22 32 12 17 991.1 - -
28/10:00am -17.9 -25.1 -20.1 83 - SSE 19 24 10 13 990.9 991.3 -
28/09:30am -18.0 -25.8 -20.4 81 - S 22 26 12 14 990.7 - -
28/09:00am -17.3 -23.4 -20.2 78 - SSW 13 17 7 9 990.6 - -
28/08:30am -14.7 -23.1 -17.1 82 - NE 26 33 14 18 990.5 - -
28/08:00am -16.1 -26.3 -18.4 82 - ENE 35 43 19 23 990.5 - -
28/07:51am -16.3 -26.9 -18.5 83 - ENE 37 43 20 23 990.4 - -
28/07:45am -16.9 -26.1 -18.7 86 - ENE 30 41 16 22 990.5 - -
28/07:30am -18.5 -25.0 -21.5 77 - SSE 15 22 8 12 990.8 - -
28/07:00am -16.3 -26.2 -20.3 71 - ENE 33 37 18 20 990.3 990.7 -
28/06:30am -16.1 -25.8 -19.6 74 - ENE 32 37 17 20 990.1 - -
28/06:00am -16.6 -26.8 -19.8 76 - ENE 35 41 19 22 990.2 - -
28/05:30am -16.3 -25.2 -20.1 72 - NE 28 39 15 21 990.4 - -
28/05:00am -16.5 -24.3 -19.9 75 - NE 22 28 12 15 990.4 - -
28/04:30am -16.4 -25.3 -19.5 77 - NE 28 35 15 19 990.3 - -
28/04:00am -18.5 -24.6 -21.2 79 - S 13 24 7 13 990.4 990.8 -
28/03:30am -17.2 -24.6 -20.0 79 - E 20 24 11 13 990.3 - -
28/03:00am -17.6 -23.7 -20.1 81 - S 13 20 7 11 990.1 - -
28/02:30am -17.7 -24.1 -19.7 84 - S 15 19 8 10 989.8 - -
28/02:00am -18.1 -25.9 -20.3 83 - S 22 24 12 13 989.5 - -
28/01:30am -17.8 -25.2 -19.8 84 - S 20 24 11 13 989.3 - -
28/01:00am -18.2 -26.0 -20.2 84 - S 22 26 12 14 989.2 989.6 -
28/12:30am -18.0 -26.1 -20.0 84 - S 24 28 13 15 989.0 - -
28/12:00am -17.7 -25.8 -19.7 84 - S 24 28 13 15 988.9 - -
 
Date/Time
EST
Temp
°C
App
Temp
°C
Dew
Point
°C
Rel
Hum
%
Delta-T
°C
Wind Press
QNH
hPa
Press
MSL
hPa
Rain since
9am
mm
Dir  Spd
km/h
Gust
km/h
Spd
kts
Gust
kts
27/11:30pm -17.2 -24.4 -19.4 83 - SSE 19 26 10 14 988.7 - -
27/11:00pm -16.3 -21.9 -18.2 85 - SSW 11 15 6 8 988.8 - -
27/10:30pm -16.5 -21.7 -18.4 85 - SSW 9 13 5 7 988.8 - -
27/10:00pm -16.5 -22.5 -18.6 84 - SW 13 17 7 9 988.6 989.0 -
27/09:30pm -16.1 -22.1 -18.2 84 - SSW 13 15 7 8 988.4 - -
27/09:00pm -16.0 -22.7 -17.9 85 - S 17 19 9 10 988.2 - -
27/08:30pm -15.6 -22.3 -17.4 86 - S 17 20 9 11 988.3 - -
27/08:00pm -15.4 -22.1 -17.3 85 - S 17 20 9 11 988.0 - -
27/07:30pm -15.4 -22.1 -17.5 84 - S 17 22 9 12 987.9 - -
27/07:00pm -14.0 -19.9 -16.7 80 - N 13 19 7 10 987.7 988.1 -
27/06:30pm -13.9 -19.8 -16.4 81 - N 13 17 7 9 987.6 - -
27/06:00pm -13.9 -19.8 -16.4 81 - NNW 13 17 7 9 987.5 - -
27/05:30pm -13.9 -19.4 -16.4 81 - NNW 11 17 6 9 987.5 - -
27/05:00pm -13.8 -19.3 -16.3 81 - NNW 11 17 6 9 987.4 - -
27/04:30pm -13.6 -19.9 -16.1 81 - NNW 15 19 8 10 987.2 - -
27/04:00pm -13.3 -19.6 -15.9 81 - NNW 15 20 8 11 987.1 987.5 -
27/03:30pm -13.1 -19.4 -15.8 80 - NNW 15 20 8 11 987.0 - -
27/03:00pm -12.9 -19.5 -15.6 80 - NNW 17 22 9 12 987.0 - -
27/02:30pm -12.8 -19.4 -15.5 80 - NNW 17 24 9 13 986.9 - -
27/02:00pm -12.7 -19.7 -15.0 83 - NW 19 24 10 13 986.9 - -
27/01:30pm -12.4 -19.0 -14.8 82 - NNW 17 22 9 12 986.7 - -
27/01:00pm -12.2 -18.4 -15.5 76 - NNW 15 20 8 11 986.5 986.9 -
27/12:30pm -12.3 -18.5 -15.3 78 - N 15 20 8 11 986.3 - -
27/12:00pm -12.6 -18.8 -14.9 83 - NW 15 20 8 11 986.2 - -
27/11:30am -12.3 -18.9 -15.2 79 - NNW 17 20 9 11 986.1 - -
27/11:00am -12.0 -18.6 -14.7 80 - NNW 17 22 9 12 986.0 - -
27/10:30am -12.0 -18.6 -14.3 83 - NNW 17 20 9 11 985.6 - -
27/10:00am -11.7 -18.6 -14.3 81 - NNW 19 24 10 13 985.6 986.0 -
27/09:30am -11.4 -17.9 -13.8 82 - NNW 17 24 9 13 985.3 - -
27/09:00am -11.2 -18.1 -13.6 82 - NNW 19 24 10 13 985.0 - -
27/08:30am -11.1 -16.8 -13.4 83 - NNW 13 20 7 11 984.5 - -
27/08:00am -12.7 -16.1 -14.7 85 - CALM 0 0 0 0 984.1 - -
27/07:30am -12.9 -17.6 -15.0 84 - SW 7 9 4 5 984.1 - -
27/07:00am -12.7 -16.1 -15.0 83 - CALM 0 0 0 0 983.5 984.0 -
27/06:30am -12.5 -15.9 -14.8 83 - CALM 0 0 0 0 983.2 - -
27/06:00am -12.5 -17.0 -15.1 81 - SW 6 7 3 4 982.8 - -
27/05:30am -12.5 -15.9 -15.1 81 - CALM 0 0 0 0 982.4 - -
27/05:00am -12.2 -16.7 -15.1 79 - E 6 7 3 4 982.0 - -
27/04:30am -12.7 -17.8 -15.3 81 - SSE 9 11 5 6 981.7 - -
27/04:00am -12.8 -18.3 -15.4 81 - SSW 11 15 6 8 981.4 981.9 -
27/03:30am -12.6 -16.4 -15.6 78 - SE 2 7 1 4 980.9 - -
27/03:00am -13.0 -18.5 -15.4 82 - S 11 13 6 7 980.4 - -
27/02:30am -13.1 -18.6 -16.0 79 - S 11 13 6 7 979.9 - -
27/02:00am -13.3 -19.6 -16.1 79 - SSE 15 22 8 12 979.3 - -
27/01:30am -13.0 -20.0 -15.9 79 - SSE 19 20 10 11 978.9 - -
27/01:00am -13.4 -21.4 -15.9 81 - SSE 24 28 13 15 978.2 978.7 -
27/12:30am -14.1 -22.9 -16.8 80 - SSE 28 32 15 17 977.6 - -
27/12:00am -13.9 -23.0 -16.3 82 - S 30 37 16 20 977.1 - -
 
Date/Time
EST
Temp
°C
App
Temp
°C
Dew
Point
°C
Rel
Hum
%
Delta-T
°C
Wind Press
QNH
hPa
Press
MSL
hPa
Rain since
9am
mm
Dir  Spd
km/h
Gust
km/h
Spd
kts
Gust
kts
26/11:30pm -13.6 -23.3 -16.1 81 - SSE 33 39 18 21 976.6 - -
26/11:00pm -13.8 -23.9 -16.6 79 - S 35 39 19 21 976.3 - -
26/10:30pm -13.3 -23.8 -16.1 79 - S 37 43 20 23 975.9 - -
26/10:25pm -13.6 -24.4 -16.3 80 - S 39 43 21 23 975.9 - -
26/10:00pm -11.4 -20.9 -15.3 73 - SSW 32 39 17 21 975.4 975.8 -
26/09:30pm -8.7 -17.8 -16.1 55 - SSE 30 43 16 23 975.2 - -
26/09:00pm -8.7 -18.2 -16.1 55 - SE 32 44 17 24 974.7 - -
26/08:30pm -9.1 -19.2 -16.5 55 - SE 35 50 19 27 974.0 - -
26/08:00pm -9.5 -19.6 -16.2 58 - SSE 35 61 19 33 973.9 - -
26/07:58pm -9.7 -20.9 -16.0 60 - SSE 41 61 22 33 973.8 - -
26/07:57pm -9.6 -21.4 -15.9 60 - S 44 61 24 33 973.7 - -
26/07:56pm -9.6 -21.4 -15.9 60 - S 44 61 24 33 973.7 - -
26/07:54pm -9.9 -21.1 -15.6 63 - SE 41 52 22 28 973.8 - -
26/07:52pm -10.0 -21.6 -15.7 63 - SE 43 57 23 31 973.7 - -
26/07:46pm -9.4 -18.9 -15.5 61 - ESE 32 57 17 31 973.1 - -
26/07:45pm -10.1 -20.9 -15.8 63 - SE 39 57 21 31 973.1 - -
26/07:30pm -9.6 -19.7 -16.3 58 - S 35 54 19 29 973.5 - -
26/07:03pm -9.1 -20.7 -15.8 58 - S 43 65 23 35 972.8 - -
26/07:00pm -9.7 -21.3 -16.6 57 - S 43 59 23 32 972.9 973.3 -
26/06:58pm -9.1 -20.3 -16.2 56 - S 41 59 22 32 972.9 - -
26/06:57pm -8.5 -20.1 -15.7 56 - S 43 59 23 32 972.7 - -
26/06:30pm -10.4 -22.0 -15.9 64 - SSE 43 63 23 34 972.6 - -
26/06:13pm -10.7 -20.1 -14.6 73 - S 32 50 17 27 972.5 - -
26/06:12pm -10.7 -20.1 -14.6 73 - S 32 83 17 45 972.5 - -
26/06:05pm -11.4 -24.2 -14.3 79 - ESE 50 76 27 41 972.3 - -
26/06:04pm -11.4 -23.9 -14.3 79 - ESE 48 106 26 57 972.3 - -
26/06:00pm -11.5 -30.0 -14.4 79 - E 80 107 43 58 970.9 - -
26/05:57pm -11.7 -31.2 -14.7 78 - E 85 113 46 61 970.3 - -
26/05:56pm -11.7 -31.2 -14.7 78 - E 85 113 46 61 970.3 - -
26/05:30pm -11.8 -33.8 -14.8 78 - E 98 117 53 63 967.9 - -

Other Formats:

Comma delimited format used in spreadsheet applications
http://www.bom.gov.au/fwo/IDT60803/IDT60803.89611.axf

JavaScript Object Notation format (JSON) in row-major order
http://www.bom.gov.au/fwo/IDT60803/IDT60803.89611.json